createdAt,value
2018-04-18T00:00:18.446Z,10.70
2018-04-18T00:02:47.842Z,10.67
2018-04-18T00:05:17.212Z,11.80
2018-04-18T00:07:46.593Z,11.80
2018-04-18T00:10:15.969Z,11.70
2018-04-18T00:12:45.348Z,12.20
2018-04-18T00:15:14.722Z,12.20
2018-04-18T00:17:44.115Z,11.70
2018-04-18T00:20:13.481Z,11.60
2018-04-18T00:22:42.856Z,12.77
2018-04-18T00:25:12.235Z,12.67
2018-04-18T00:27:41.606Z,12.47
2018-04-18T00:30:10.986Z,13.13
2018-04-18T00:32:40.345Z,13.20
2018-04-18T00:35:09.725Z,12.10
2018-04-18T00:37:39.100Z,12.40
2018-04-18T00:40:07.162Z,12.37
2018-04-18T00:42:36.027Z,13.00
2018-04-18T00:45:04.190Z,12.77
2018-04-18T00:47:32.310Z,13.67
2018-04-18T00:50:00.447Z,13.50
2018-04-18T00:52:28.556Z,12.87
2018-04-18T00:54:56.687Z,13.80
2018-04-18T00:57:24.797Z,13.60
2018-04-18T00:59:52.927Z,12.83
2018-04-18T01:02:21.032Z,12.37
2018-04-18T01:04:49.930Z,12.97
2018-04-18T01:07:18.806Z,14.13
2018-04-18T01:09:47.705Z,12.40
2018-04-18T01:12:17.176Z,14.23
2018-04-18T01:14:49.309Z,14.33
2018-04-18T01:17:18.990Z,14.00
2018-04-18T01:19:48.359Z,12.50
2018-04-18T01:22:17.736Z,12.50
2018-04-18T01:24:47.129Z,13.60
2018-04-18T01:27:16.487Z,14.37
2018-04-18T01:29:45.873Z,14.50
2018-04-18T01:32:15.243Z,14.97
2018-04-18T01:34:44.640Z,14.70
2018-04-18T01:37:14.012Z,15.10
2018-04-18T01:39:43.405Z,16.23
2018-04-18T01:42:12.189Z,14.50
2018-04-18T01:44:41.707Z,14.97
2018-04-18T01:47:11.075Z,15.07
2018-04-18T01:49:40.463Z,15.60
2018-04-18T01:52:09.836Z,15.73
2018-04-18T01:54:39.222Z,18.13
2018-04-18T01:57:08.584Z,17.30
2018-04-18T01:59:37.981Z,16.30
2018-04-18T02:02:07.382Z,15.90
2018-04-18T02:04:36.778Z,16.23
2018-04-18T02:07:06.152Z,17.30
2018-04-18T02:09:35.557Z,15.40
2018-04-18T02:12:04.927Z,18.43
2018-04-18T02:14:34.314Z,15.37
2018-04-18T02:17:03.679Z,16.13
2018-04-18T02:19:33.050Z,17.57
2018-04-18T02:22:02.416Z,16.63
2018-04-18T02:24:33.179Z,16.37
2018-04-18T02:27:02.552Z,17.10
2018-04-18T02:29:31.938Z,17.30
2018-04-18T02:32:01.326Z,17.10
2018-04-18T02:34:30.711Z,17.60
2018-04-18T02:37:00.086Z,17.00
2018-04-18T02:39:29.465Z,18.73
2018-04-18T02:41:58.833Z,19.50
2018-04-18T02:44:28.218Z,18.80
2018-04-18T02:46:57.595Z,18.97
2018-04-18T02:49:26.985Z,18.10
2018-04-18T02:51:56.365Z,17.70
2018-04-18T02:54:25.764Z,17.10
2018-04-18T02:56:55.127Z,17.47
2018-04-18T02:59:24.517Z,17.97
2018-04-18T03:01:53.895Z,16.60
2018-04-18T03:04:23.275Z,18.07
2018-04-18T03:06:52.798Z,18.63
2018-04-18T03:09:20.919Z,16.30
2018-04-18T03:11:49.028Z,15.73
2018-04-18T03:14:17.173Z,16.53
2018-04-18T03:16:45.273Z,16.90
2018-04-18T03:19:13.413Z,17.60
2018-04-18T03:21:41.530Z,17.67
2018-04-18T03:24:09.633Z,18.43
2018-04-18T03:26:38.556Z,15.10
2018-04-18T03:29:06.645Z,15.97
2018-04-18T03:31:34.772Z,15.60
2018-04-18T03:34:03.655Z,16.50
2018-04-18T03:36:32.562Z,18.73
2018-04-18T03:39:00.689Z,17.80
2018-04-18T03:41:28.812Z,18.33
2018-04-18T03:43:56.938Z,18.50
2018-04-18T03:46:25.063Z,18.20
2018-04-18T03:48:53.165Z,17.93
2018-04-18T03:51:21.300Z,17.40
2018-04-18T03:53:49.415Z,17.70
2018-04-18T03:56:17.535Z,19.57
2018-04-18T03:58:47.261Z,17.27
2018-04-18T04:01:15.398Z,18.87
2018-04-18T04:03:43.504Z,18.23
2018-04-18T04:06:11.642Z,18.10
2018-04-18T04:08:39.739Z,17.57
2018-04-18T04:11:08.634Z,18.60
2018-04-18T04:13:37.499Z,18.03
2018-04-18T04:16:06.488Z,17.80
2018-04-18T04:18:46.457Z,17.50
2018-04-18T04:21:26.498Z,16.77
2018-04-18T04:24:06.471Z,16.00
2018-04-18T04:26:35.369Z,17.30
2018-04-18T04:29:04.248Z,17.57
2018-04-18T04:31:33.160Z,17.10
2018-04-18T04:34:02.041Z,16.10
2018-04-18T04:36:30.938Z,17.33
2018-04-18T04:38:59.051Z,17.23
2018-04-18T04:41:27.189Z,18.37
2018-04-18T04:43:56.062Z,17.40
2018-04-18T04:46:24.189Z,17.80
2018-04-18T04:48:52.291Z,16.10
2018-04-18T04:51:20.429Z,17.60
2018-04-18T04:53:48.532Z,17.60
2018-04-18T04:56:16.656Z,18.13
2018-04-18T04:58:44.903Z,16.50
2018-04-18T05:01:13.862Z,16.73
2018-04-18T05:03:41.969Z,16.87
2018-04-18T05:06:10.113Z,16.83
2018-04-18T05:08:38.227Z,16.40
2018-04-18T05:11:07.447Z,17.03
2018-04-18T05:13:35.550Z,17.30
2018-04-18T05:16:04.138Z,17.87
2018-04-18T05:18:32.562Z,16.83
2018-04-18T05:21:00.758Z,19.20
2018-04-18T05:23:28.871Z,18.10
2018-04-18T05:25:57.068Z,17.77
2018-04-18T05:28:26.577Z,17.60
2018-04-18T05:30:55.991Z,15.50
2018-04-18T05:33:25.527Z,16.30
2018-04-18T05:35:55.015Z,16.03
2018-04-18T05:38:24.400Z,18.60
2018-04-18T05:40:54.049Z,18.50
2018-04-18T05:43:23.412Z,17.27
2018-04-18T05:45:52.794Z,18.70
2018-04-18T05:48:22.434Z,16.53
2018-04-18T05:50:51.892Z,15.80
2018-04-18T05:53:21.246Z,17.30
2018-04-18T05:55:50.644Z,17.10
2018-04-18T05:58:20.031Z,17.07
2018-04-18T06:00:49.421Z,17.37
2018-04-18T06:03:18.820Z,17.07
2018-04-18T06:05:48.204Z,16.40
2018-04-18T06:08:17.579Z,18.83
2018-04-18T06:10:46.959Z,16.47
2018-04-18T06:13:16.334Z,18.43
2018-04-18T06:15:45.729Z,16.20
2018-04-18T06:18:15.098Z,17.10
2018-04-18T06:20:44.477Z,16.13
2018-04-18T06:23:13.885Z,17.57
2018-04-18T06:25:43.350Z,16.80
2018-04-18T06:28:12.912Z,17.17
2018-04-18T06:30:42.272Z,14.63
2018-04-18T06:33:11.665Z,16.07
2018-04-18T06:35:41.027Z,16.53
2018-04-18T06:38:10.416Z,16.67
2018-04-18T06:40:39.782Z,17.00
2018-04-18T06:43:09.189Z,16.07
2018-04-18T06:45:38.555Z,16.63
2018-04-18T06:48:07.944Z,15.97
2018-04-18T06:50:37.313Z,16.50
2018-04-18T06:53:06.704Z,16.77
2018-04-18T06:55:36.082Z,16.60
2018-04-18T06:58:05.457Z,16.90
2018-04-18T07:00:34.851Z,17.50
2018-04-18T07:03:04.239Z,18.57
2018-04-18T07:05:33.598Z,19.77
2018-04-18T07:08:03.240Z,17.57
2018-04-18T07:10:32.620Z,17.30
2018-04-18T07:13:02.000Z,17.53
2018-04-18T07:15:31.363Z,18.90
2018-04-18T07:18:00.758Z,20.40
2018-04-18T07:20:30.111Z,20.27
2018-04-18T07:22:59.504Z,19.17
2018-04-18T07:25:28.859Z,19.17
2018-04-18T07:27:58.248Z,19.70
2018-04-18T07:30:27.611Z,20.47
2018-04-18T07:32:56.992Z,22.23
2018-04-18T07:35:26.359Z,20.87
2018-04-18T07:37:55.753Z,20.50
2018-04-18T07:40:25.108Z,21.80
2018-04-18T07:42:54.490Z,23.00
2018-04-18T07:45:23.855Z,21.57
2018-04-18T07:47:53.247Z,21.60
2018-04-18T07:50:22.620Z,21.80
2018-04-18T07:52:52.003Z,22.37
2018-04-18T07:55:21.377Z,21.23
2018-04-18T07:57:50.765Z,23.17
2018-04-18T08:00:20.136Z,22.13
2018-04-18T08:02:49.511Z,22.03
2018-04-18T08:05:18.867Z,22.57
2018-04-18T08:07:48.367Z,22.67
2018-04-18T08:10:17.715Z,22.00
2018-04-18T08:12:47.116Z,20.80
2018-04-18T08:15:16.595Z,21.87
2018-04-18T08:17:45.967Z,21.20
2018-04-18T08:20:15.332Z,22.30
2018-04-18T08:22:44.719Z,22.87
2018-04-18T08:25:14.083Z,22.60
2018-04-18T08:27:49.450Z,21.30
2018-04-18T08:30:18.960Z,22.93
2018-04-18T08:32:48.340Z,21.23
2018-04-18T08:35:17.715Z,19.80
2018-04-18T08:37:47.124Z,20.67
2018-04-18T08:40:16.492Z,19.10
2018-04-18T08:42:45.876Z,18.73
2018-04-18T08:45:15.287Z,17.43
2018-04-18T08:47:44.747Z,18.87
2018-04-18T08:50:14.107Z,18.10
2018-04-18T08:52:43.488Z,17.13
2018-04-18T08:55:12.852Z,16.80
2018-04-18T08:57:42.236Z,17.37
2018-04-18T09:00:11.607Z,16.50
2018-04-18T09:02:40.985Z,18.20
2018-04-18T09:05:10.355Z,17.67
2018-04-18T09:07:39.975Z,16.20
2018-04-18T09:10:09.365Z,16.10
2018-04-18T09:12:38.765Z,14.83
2018-04-18T09:15:08.137Z,14.17
2018-04-18T09:17:37.552Z,15.80
2018-04-18T09:20:06.922Z,16.33
2018-04-18T09:22:36.316Z,18.27
2018-04-18T09:25:05.671Z,16.77
2018-04-18T09:27:35.063Z,16.67
2018-04-18T09:30:04.429Z,18.10
2018-04-18T09:32:33.821Z,17.10
2018-04-18T09:35:03.453Z,17.87
2018-04-18T09:37:33.067Z,17.03
2018-04-18T09:40:02.662Z,18.77
2018-04-18T09:42:32.047Z,18.73
2018-04-18T09:45:01.705Z,17.70
2018-04-18T09:47:31.405Z,16.80
2018-04-18T09:50:00.848Z,19.80
2018-04-18T09:52:30.251Z,17.93
2018-04-18T09:54:59.612Z,18.57
2018-04-18T09:57:28.993Z,19.30
2018-04-18T09:59:58.491Z,18.60
2018-04-18T10:02:28.799Z,19.10
2018-04-18T10:05:03.970Z,19.60
2018-04-18T10:07:33.361Z,18.13
2018-04-18T10:10:02.778Z,18.33
2018-04-18T10:12:32.161Z,18.13
2018-04-18T10:15:01.524Z,18.43
2018-04-18T10:17:30.905Z,17.20
2018-04-18T10:20:00.272Z,18.00
2018-04-18T10:22:29.874Z,15.53
2018-04-18T10:24:59.247Z,17.70
2018-04-18T10:27:28.648Z,17.13
2018-04-18T10:29:58.012Z,16.97
2018-04-18T10:32:27.390Z,18.17
2018-04-18T10:34:56.898Z,18.90
2018-04-18T10:37:26.295Z,19.30
2018-04-18T10:39:55.684Z,17.37
2018-04-18T10:42:25.081Z,18.90
2018-04-18T10:44:54.443Z,16.50
2018-04-18T10:47:23.832Z,17.13
2018-04-18T10:49:53.206Z,17.37
2018-04-18T10:52:22.584Z,17.67
2018-04-18T10:54:52.135Z,17.87
2018-04-18T10:57:21.556Z,17.07
2018-04-18T10:59:50.916Z,19.17
2018-04-18T11:02:20.295Z,18.40
2018-04-18T11:04:49.668Z,18.50
2018-04-18T11:07:19.055Z,18.90
2018-04-18T11:09:48.428Z,18.17
2018-04-18T11:12:17.816Z,18.97
2018-04-18T11:14:47.184Z,15.50
2018-04-18T11:17:16.559Z,18.03
2018-04-18T11:19:45.940Z,16.20
2018-04-18T11:22:15.873Z,16.67
2018-04-18T11:24:45.340Z,18.47
2018-04-18T11:27:14.694Z,15.77
2018-04-18T11:29:44.092Z,18.03
2018-04-18T11:32:13.449Z,17.20
2018-04-18T11:34:42.847Z,16.80
2018-04-18T11:37:12.213Z,19.50
2018-04-18T11:39:41.644Z,15.17
2018-04-18T11:42:10.971Z,16.70
2018-04-18T11:44:40.360Z,15.30
2018-04-18T11:47:09.734Z,16.33
2018-04-18T11:49:39.117Z,17.33
2018-04-18T11:52:08.479Z,17.37
2018-04-18T11:54:37.858Z,16.60
2018-04-18T11:57:07.266Z,17.43
2018-04-18T11:59:36.647Z,17.93
2018-04-18T12:02:06.014Z,17.50
2018-04-18T12:04:35.400Z,16.53
2018-04-18T12:07:04.781Z,15.83
2018-04-18T12:09:34.172Z,17.60
2018-04-18T12:12:03.543Z,16.50
2018-04-18T12:14:32.925Z,15.07
2018-04-18T12:17:02.283Z,12.90
2018-04-18T12:19:31.682Z,12.40
2018-04-18T12:22:01.035Z,12.50
2018-04-18T12:24:30.439Z,16.87
2018-04-18T12:26:59.792Z,15.20
2018-04-18T12:29:29.183Z,17.20
2018-04-18T12:31:58.551Z,15.70
2018-04-18T12:34:27.944Z,15.17
2018-04-18T12:36:57.315Z,15.10
2018-04-18T12:39:26.704Z,15.40
2018-04-18T12:41:56.072Z,14.23
2018-04-18T12:44:25.458Z,14.50
2018-04-18T12:46:54.828Z,13.40
2018-04-18T12:49:24.216Z,16.27
2018-04-18T12:51:53.589Z,14.03
2018-04-18T12:54:22.971Z,16.57
2018-04-18T12:56:52.365Z,14.60
2018-04-18T12:59:21.744Z,15.23
2018-04-18T13:01:51.108Z,14.53
2018-04-18T13:04:20.492Z,15.60
2018-04-18T13:06:49.864Z,15.60
2018-04-18T13:09:19.259Z,13.17
2018-04-18T13:11:48.634Z,17.47
2018-04-18T13:14:18.012Z,15.73
2018-04-18T13:16:47.375Z,14.37
2018-04-18T13:19:16.777Z,13.93
2018-04-18T13:21:46.146Z,15.97
2018-04-18T13:24:15.542Z,15.63
2018-04-18T13:26:44.912Z,15.13
2018-04-18T13:29:14.310Z,17.40
2018-04-18T13:31:43.686Z,14.37
2018-04-18T13:34:13.091Z,13.90
2018-04-18T13:36:42.457Z,13.07
2018-04-18T13:39:11.865Z,13.40
2018-04-18T13:41:41.237Z,11.83
2018-04-18T13:44:10.651Z,14.73
2018-04-18T13:46:40.038Z,11.80
2018-04-18T13:49:09.430Z,10.80
2018-04-18T13:51:38.794Z,12.03
2018-04-18T13:54:08.183Z,13.33
2018-04-18T13:56:37.558Z,12.87
2018-04-18T13:59:06.993Z,11.37
2018-04-18T14:01:36.378Z,11.70
2018-04-18T14:04:05.791Z,10.17
2018-04-18T14:06:35.184Z,10.90
2018-04-18T14:09:04.593Z,10.67
2018-04-18T14:11:33.985Z,11.10
2018-04-18T14:14:03.385Z,12.00
2018-04-18T14:16:32.747Z,11.50
2018-04-18T14:19:02.143Z,10.17
2018-04-18T14:21:31.507Z,12.00
2018-04-18T14:24:00.909Z,11.20
2018-04-18T14:26:30.272Z,11.40
2018-04-18T14:28:59.671Z,9.80
2018-04-18T14:31:29.044Z,10.27
2018-04-18T14:33:58.441Z,9.50
2018-04-18T14:36:27.814Z,12.07
2018-04-18T14:38:57.210Z,10.47
2018-04-18T14:41:26.570Z,9.60
2018-04-18T14:43:55.964Z,10.20
2018-04-18T14:46:25.344Z,10.07
2018-04-18T14:48:54.727Z,10.60
2018-04-18T14:51:24.108Z,10.30
2018-04-18T14:53:53.504Z,9.00
2018-04-18T14:56:22.873Z,9.73
2018-04-18T14:58:52.289Z,9.67
2018-04-18T15:01:21.637Z,8.60
2018-04-18T15:03:51.030Z,10.03
2018-04-18T15:06:20.407Z,10.20
2018-04-18T15:08:49.794Z,11.23
2018-04-18T15:11:19.169Z,9.03
2018-04-18T15:13:48.574Z,8.30
2018-04-18T15:16:17.946Z,8.37
2018-04-18T15:18:47.325Z,10.40
2018-04-18T15:21:16.702Z,10.93
2018-04-18T15:23:46.097Z,9.27
2018-04-18T15:26:15.473Z,9.87
2018-04-18T15:28:44.861Z,8.63
2018-04-18T15:31:14.236Z,8.70
2018-04-18T15:33:43.625Z,9.43
2018-04-18T15:36:13.019Z,7.90
2018-04-18T15:38:42.401Z,8.00
2018-04-18T15:41:11.773Z,9.33
2018-04-18T15:43:41.238Z,8.97
2018-04-18T15:46:10.673Z,7.37
2018-04-18T15:48:40.092Z,7.33
2018-04-18T15:51:10.717Z,10.00
2018-04-18T15:53:40.103Z,8.10
2018-04-18T15:56:09.490Z,8.50
2018-04-18T15:58:38.856Z,7.00
2018-04-18T16:01:08.333Z,8.73
2018-04-18T16:03:37.695Z,7.57
2018-04-18T16:06:07.083Z,9.20
2018-04-18T16:08:36.461Z,10.03
2018-04-18T16:11:05.977Z,9.20
2018-04-18T16:13:35.360Z,9.03
2018-04-18T16:16:04.749Z,8.83
2018-04-18T16:18:34.127Z,9.83
2018-04-18T16:21:03.510Z,9.57
2018-04-18T16:23:32.863Z,7.50
2018-04-18T16:26:02.304Z,7.40
2018-04-18T16:28:31.663Z,6.47
2018-04-18T16:31:01.044Z,6.30
2018-04-18T16:33:30.414Z,6.70
2018-04-18T16:35:59.838Z,7.40
2018-04-18T16:38:29.636Z,7.00
2018-04-18T16:41:06.115Z,7.30
2018-04-18T16:43:38.643Z,7.70
2018-04-18T16:46:09.140Z,7.53
2018-04-18T16:48:38.642Z,7.87
2018-04-18T16:51:08.066Z,6.80
2018-04-18T16:53:37.471Z,7.40
2018-04-18T16:56:06.954Z,8.27
2018-04-18T16:58:36.362Z,7.50
2018-04-18T17:01:05.791Z,6.30
2018-04-18T17:03:35.206Z,6.80
2018-04-18T17:06:04.840Z,5.73
2018-04-18T17:08:34.212Z,8.20
2018-04-18T17:11:03.647Z,7.13
2018-04-18T17:13:33.012Z,7.10
2018-04-18T17:16:02.409Z,8.00
2018-04-18T17:18:31.781Z,7.57
2018-04-18T17:21:01.169Z,6.80
2018-04-18T17:23:30.533Z,7.57
2018-04-18T17:25:59.928Z,7.53
2018-04-18T17:28:29.292Z,7.57
2018-04-18T17:30:58.681Z,7.33
2018-04-18T17:33:32.976Z,7.13
2018-04-18T17:36:02.370Z,7.87
2018-04-18T17:38:32.808Z,8.30
2018-04-18T17:41:02.373Z,7.60
2018-04-18T17:43:31.921Z,8.10
2018-04-18T17:46:06.170Z,8.47
2018-04-18T17:48:40.777Z,8.07
2018-04-18T17:51:10.149Z,7.80
2018-04-18T17:53:47.016Z,7.87
2018-04-18T17:56:20.525Z,8.57
2018-04-18T17:58:49.907Z,7.23
2018-04-18T18:01:30.972Z,8.90
2018-04-18T18:04:00.369Z,7.73
2018-04-18T18:06:33.222Z,8.43
2018-04-18T18:09:16.672Z,7.90
2018-04-18T18:11:57.182Z,7.23
2018-04-18T18:14:28.969Z,7.80
2018-04-18T18:16:58.332Z,8.10
2018-04-18T18:19:27.738Z,8.63
2018-04-18T18:21:57.116Z,8.10
2018-04-18T18:24:26.494Z,8.10
2018-04-18T18:26:55.899Z,7.50
2018-04-18T18:29:25.285Z,7.70
2018-04-18T18:31:54.669Z,7.10
2018-04-18T18:34:24.039Z,7.17
2018-04-18T18:36:53.529Z,7.00
2018-04-18T18:39:22.908Z,7.40
2018-04-18T18:41:52.337Z,7.60
2018-04-18T18:44:21.750Z,7.50
2018-04-18T18:46:51.139Z,8.07
2018-04-18T18:49:20.735Z,8.60
2018-04-18T18:51:50.136Z,8.23
2018-04-18T18:54:19.514Z,8.17
2018-04-18T18:56:48.901Z,8.50
2018-04-18T18:59:18.272Z,9.80
2018-04-18T19:01:47.652Z,9.57
2018-04-18T19:04:17.026Z,9.60
2018-04-18T19:06:46.414Z,8.60
2018-04-18T19:09:15.779Z,9.90
2018-04-18T19:11:45.183Z,10.53
2018-04-18T19:14:14.543Z,12.27
2018-04-18T19:16:44.144Z,11.00
2018-04-18T19:19:13.511Z,12.50
2018-04-18T19:21:42.911Z,12.70
2018-04-18T19:24:12.289Z,12.87
2018-04-18T19:26:41.702Z,13.50
2018-04-18T19:29:11.115Z,14.30
2018-04-18T19:31:40.538Z,16.17
2018-04-18T19:34:09.909Z,16.57
2018-04-18T19:36:39.310Z,16.00
2018-04-18T19:39:08.675Z,15.20
2018-04-18T19:41:38.653Z,16.67
2018-04-18T19:44:08.232Z,15.83
2018-04-18T19:46:37.703Z,17.33
2018-04-18T19:49:07.419Z,16.17
2018-04-18T19:51:36.874Z,17.07
2018-04-18T19:54:06.248Z,17.10
2018-04-18T19:56:35.647Z,17.40
2018-04-18T19:59:05.083Z,16.70
2018-04-18T20:01:34.628Z,18.40
2018-04-18T20:04:04.848Z,19.00
2018-04-18T20:06:35.805Z,18.90
2018-04-18T20:09:05.169Z,19.90
2018-04-18T20:11:34.561Z,19.70
2018-04-18T20:14:04.005Z,18.47
2018-04-18T20:16:33.402Z,20.80
2018-04-18T20:19:02.882Z,20.70
2018-04-18T20:21:32.278Z,19.47
2018-04-18T20:24:02.067Z,20.30
2018-04-18T20:26:31.458Z,21.83
2018-04-18T20:29:00.833Z,22.43
2018-04-18T20:31:30.212Z,21.30
2018-04-18T20:33:59.596Z,19.30
2018-04-18T20:36:34.971Z,21.60
2018-04-18T20:39:04.353Z,21.53
2018-04-18T20:41:33.739Z,22.80
2018-04-18T20:44:03.211Z,19.90
2018-04-18T20:46:32.610Z,23.90
2018-04-18T20:49:01.980Z,22.27
2018-04-18T20:51:31.369Z,21.43
2018-04-18T20:54:00.745Z,19.30
2018-04-18T20:56:30.136Z,19.23
2018-04-18T20:58:59.512Z,21.10
2018-04-18T21:01:28.911Z,19.57
2018-04-18T21:03:58.272Z,19.00
2018-04-18T21:06:27.669Z,19.17
2018-04-18T21:08:57.058Z,20.00
2018-04-18T21:11:26.458Z,21.60
2018-04-18T21:13:55.828Z,18.90
2018-04-18T21:16:25.257Z,19.77
2018-04-18T21:18:54.631Z,19.67
2018-04-18T21:21:24.007Z,20.60
2018-04-18T21:23:53.421Z,20.93
2018-04-18T21:26:22.798Z,19.43
2018-04-18T21:28:52.196Z,19.67
2018-04-18T21:31:21.573Z,19.80
2018-04-18T21:33:50.978Z,19.80
2018-04-18T21:36:20.348Z,22.23
2018-04-18T21:38:49.741Z,19.93
2018-04-18T21:41:19.108Z,22.63
2018-04-18T21:43:47.926Z,22.03
2018-04-18T21:46:16.054Z,20.80
2018-04-18T21:48:44.178Z,20.33
2018-04-18T21:51:12.290Z,19.63
2018-04-18T21:53:40.435Z,20.07
2018-04-18T21:56:08.563Z,19.70
2018-04-18T21:58:37.462Z,20.70
2018-04-18T22:01:06.350Z,20.40
2018-04-18T22:03:35.242Z,19.50
2018-04-18T22:06:04.131Z,21.30
2018-04-18T22:08:33.038Z,22.00
2018-04-18T22:11:01.155Z,20.57
2018-04-18T22:13:30.091Z,19.80
2018-04-18T22:15:58.975Z,20.50
2018-04-18T22:18:27.886Z,19.80
2018-04-18T22:20:56.793Z,20.23
2018-04-18T22:23:24.924Z,19.97
2018-04-18T22:25:53.076Z,18.03
2018-04-18T22:28:21.223Z,21.13
2018-04-18T22:30:49.342Z,21.00
2018-04-18T22:33:17.487Z,21.47
2018-04-18T22:35:45.608Z,20.90
2018-04-18T22:38:14.505Z,21.57
2018-04-18T22:40:43.387Z,20.40
2018-04-18T22:43:12.291Z,20.90
2018-04-18T22:45:41.171Z,20.90
2018-04-18T22:48:10.087Z,22.13
2018-04-18T22:50:38.196Z,18.67
2018-04-18T22:53:06.332Z,19.20
2018-04-18T22:55:34.436Z,17.40
2018-04-18T22:58:02.639Z,19.17
2018-04-18T23:00:30.749Z,20.13
2018-04-18T23:02:58.864Z,20.03
2018-04-18T23:05:27.385Z,20.30
2018-04-18T23:07:56.257Z,21.00
2018-04-18T23:10:24.402Z,21.53
2018-04-18T23:12:52.520Z,20.73
2018-04-18T23:15:21.423Z,19.83
2018-04-18T23:17:50.290Z,19.67
2018-04-18T23:20:18.480Z,18.73
2018-04-18T23:22:46.558Z,19.17
2018-04-18T23:25:15.463Z,18.83
2018-04-18T23:27:43.577Z,18.97
2018-04-18T23:30:11.731Z,19.40
2018-04-18T23:32:39.842Z,18.37
2018-04-18T23:35:07.988Z,19.20
2018-04-18T23:37:36.107Z,19.80
2018-04-18T23:40:05.005Z,22.07
2018-04-18T23:42:33.890Z,21.17
2018-04-18T23:45:02.867Z,20.70
2018-04-18T23:47:30.990Z,19.87
2018-04-18T23:49:59.130Z,18.73
2018-04-18T23:52:28.009Z,18.73
2018-04-18T23:54:56.145Z,19.77
2018-04-18T23:57:24.259Z,18.30
2018-04-18T23:59:52.377Z,19.87
